sensor_id;sensor_type;location;lat;lon;timestamp;temperature;humidity
17200;DHT22;8716;52.268;20.968;2023-07-24T00:00:49;21.40;99.90
17200;DHT22;8716;52.268;20.968;2023-07-24T00:03:18;21.30;99.90
17200;DHT22;8716;52.268;20.968;2023-07-24T00:05:46;21.30;99.90
17200;DHT22;8716;52.268;20.968;2023-07-24T00:08:14;21.30;99.90
17200;DHT22;8716;52.268;20.968;2023-07-24T00:10:42;21.30;99.90
17200;DHT22;8716;52.268;20.968;2023-07-24T00:13:11;21.30;99.90
17200;DHT22;8716;52.268;20.968;2023-07-24T00:15:39;21.30;99.90
17200;DHT22;8716;52.268;20.968;2023-07-24T00:18:11;21.30;99.90
17200;DHT22;8716;52.268;20.968;2023-07-24T00:20:39;21.30;99.90
17200;DHT22;8716;52.268;20.968;2023-07-24T00:23:08;21.30;99.90
17200;DHT22;8716;52.268;20.968;2023-07-24T00:25:36;21.30;99.90
17200;DHT22;8716;52.268;20.968;2023-07-24T00:28:04;21.40;99.90
17200;DHT22;8716;52.268;20.968;2023-07-24T00:30:32;21.40;99.90
17200;DHT22;8716;52.268;20.968;2023-07-24T00:33:01;21.40;99.90
17200;DHT22;8716;52.268;20.968;2023-07-24T00:35:31;21.50;99.90
17200;DHT22;8716;52.268;20.968;2023-07-24T00:37:59;21.50;99.90
17200;DHT22;8716;52.268;20.968;2023-07-24T00:40:27;21.50;99.90
17200;DHT22;8716;52.268;20.968;2023-07-24T00:42:55;21.50;99.90
17200;DHT22;8716;52.268;20.968;2023-07-24T00:45:24;21.60;99.90
17200;DHT22;8716;52.268;20.968;2023-07-24T00:47:52;21.60;99.90
17200;DHT22;8716;52.268;20.968;2023-07-24T00:50:21;21.60;99.90
17200;DHT22;8716;52.268;20.968;2023-07-24T00:52:51;21.70;99.90
17200;DHT22;8716;52.268;20.968;2023-07-24T00:55:19;21.70;99.90
17200;DHT22;8716;52.268;20.968;2023-07-24T00:57:48;21.70;99.90
17200;DHT22;8716;52.268;20.968;2023-07-24T01:00:19;21.80;99.90
17200;DHT22;8716;52.268;20.968;2023-07-24T01:02:48;21.80;99.90
17200;DHT22;8716;52.268;20.968;2023-07-24T01:05:17;21.80;99.90
17200;DHT22;8716;52.268;20.968;2023-07-24T01:07:45;21.80;99.90
17200;DHT22;8716;52.268;20.968;2023-07-24T01:10:16;21.80;99.90
17200;DHT22;8716;52.268;20.968;2023-07-24T01:12:52;21.90;99.90
17200;DHT22;8716;52.268;20.968;2023-07-24T01:15:30;21.90;99.90
17200;DHT22;8716;52.268;20.968;2023-07-24T01:18:05;21.90;99.90
17200;DHT22;8716;52.268;20.968;2023-07-24T01:20:37;21.90;99.90
17200;DHT22;8716;52.268;20.968;2023-07-24T01:23:19;21.90;99.90
17200;DHT22;8716;52.268;20.968;2023-07-24T01:25:56;21.90;99.90
17200;DHT22;8716;52.268;20.968;2023-07-24T01:28:24;22.00;99.90
17200;DHT22;8716;52.268;20.968;2023-07-24T01:30:53;22.00;99.90
17200;DHT22;8716;52.268;20.968;2023-07-24T01:33:22;22.00;99.90
17200;DHT22;8716;52.268;20.968;2023-07-24T01:35:54;22.00;99.90
17200;DHT22;8716;52.268;20.968;2023-07-24T01:38:24;22.00;99.90
17200;DHT22;8716;52.268;20.968;2023-07-24T01:40:54;22.00;99.90
17200;DHT22;8716;52.268;20.968;2023-07-24T01:43:25;22.00;99.90
17200;DHT22;8716;52.268;20.968;2023-07-24T01:45:55;22.00;99.90
17200;DHT22;8716;52.268;20.968;2023-07-24T01:48:23;22.10;99.90
17200;DHT22;8716;52.268;20.968;2023-07-24T01:50:53;22.10;99.90
17200;DHT22;8716;52.268;20.968;2023-07-24T01:53:22;22.00;99.90
17200;DHT22;8716;52.268;20.968;2023-07-24T01:55:50;22.10;99.90
17200;DHT22;8716;52.268;20.968;2023-07-24T01:58:20;22.00;99.90
17200;DHT22;8716;52.268;20.968;2023-07-24T02:00:48;22.00;99.90
17200;DHT22;8716;52.268;20.968;2023-07-24T02:03:16;22.00;99.90
17200;DHT22;8716;52.268;20.968;2023-07-24T02:05:49;22.00;99.90
17200;DHT22;8716;52.268;20.968;2023-07-24T02:08:18;22.10;99.90
17200;DHT22;8716;52.268;20.968;2023-07-24T02:10:48;22.10;99.90
17200;DHT22;8716;52.268;20.968;2023-07-24T02:13:17;22.10;99.90
17200;DHT22;8716;52.268;20.968;2023-07-24T02:15:50;22.00;99.90
17200;DHT22;8716;52.268;20.968;2023-07-24T02:18:18;22.10;99.90
17200;DHT22;8716;52.268;20.968;2023-07-24T02:20:50;22.10;99.90
17200;DHT22;8716;52.268;20.968;2023-07-24T02:23:20;22.10;99.90
17200;DHT22;8716;52.268;20.968;2023-07-24T02:25:51;22.10;99.90
17200;DHT22;8716;52.268;20.968;2023-07-24T02:28:20;22.10;99.90
17200;DHT22;8716;52.268;20.968;2023-07-24T02:30:50;22.00;99.90
17200;DHT22;8716;52.268;20.968;2023-07-24T02:33:18;22.00;99.90
17200;DHT22;8716;52.268;20.968;2023-07-24T02:35:47;22.00;99.90
17200;DHT22;8716;52.268;20.968;2023-07-24T02:38:15;22.00;99.90
17200;DHT22;8716;52.268;20.968;2023-07-24T02:40:44;22.00;99.90
17200;DHT22;8716;52.268;20.968;2023-07-24T02:43:13;21.90;99.90
17200;DHT22;8716;52.268;20.968;2023-07-24T02:45:42;21.90;99.90
17200;DHT22;8716;52.268;20.968;2023-07-24T02:48:11;21.90;99.90
17200;DHT22;8716;52.268;20.968;2023-07-24T02:50:42;21.90;99.90
17200;DHT22;8716;52.268;20.968;2023-07-24T02:53:10;21.90;99.90
17200;DHT22;8716;52.268;20.968;2023-07-24T02:55:42;21.90;99.90
17200;DHT22;8716;52.268;20.968;2023-07-24T02:58:12;21.90;99.90
17200;DHT22;8716;52.268;20.968;2023-07-24T03:00:40;21.80;99.90
17200;DHT22;8716;52.268;20.968;2023-07-24T03:03:08;21.80;99.90
17200;DHT22;8716;52.268;20.968;2023-07-24T03:05:41;21.80;99.90
17200;DHT22;8716;52.268;20.968;2023-07-24T03:08:09;21.80;99.90
17200;DHT22;8716;52.268;20.968;2023-07-24T03:10:40;21.80;99.90
17200;DHT22;8716;52.268;20.968;2023-07-24T03:13:08;21.80;99.90
17200;DHT22;8716;52.268;20.968;2023-07-24T03:15:36;21.80;99.90
17200;DHT22;8716;52.268;20.968;2023-07-24T03:18:05;21.80;99.90
17200;DHT22;8716;52.268;20.968;2023-07-24T03:20:33;21.90;99.90
17200;DHT22;8716;52.268;20.968;2023-07-24T03:23:03;21.90;99.90
17200;DHT22;8716;52.268;20.968;2023-07-24T03:25:32;21.90;99.90
17200;DHT22;8716;52.268;20.968;2023-07-24T03:28:03;21.90;99.90
17200;DHT22;8716;52.268;20.968;2023-07-24T03:30:31;21.90;99.90
17200;DHT22;8716;52.268;20.968;2023-07-24T03:32:59;21.90;99.90
17200;DHT22;8716;52.268;20.968;2023-07-24T03:35:30;21.90;99.90
17200;DHT22;8716;52.268;20.968;2023-07-24T03:37:59;21.90;99.90
17200;DHT22;8716;52.268;20.968;2023-07-24T03:40:29;21.90;99.90
17200;DHT22;8716;52.268;20.968;2023-07-24T03:42:59;21.90;99.90
17200;DHT22;8716;52.268;20.968;2023-07-24T03:45:27;21.90;99.90
17200;DHT22;8716;52.268;20.968;2023-07-24T03:47:56;22.00;99.90
17200;DHT22;8716;52.268;20.968;2023-07-24T03:50:24;22.00;99.90
17200;DHT22;8716;52.268;20.968;2023-07-24T03:52:52;22.00;99.90
17200;DHT22;8716;52.268;20.968;2023-07-24T03:55:20;22.00;99.90
17200;DHT22;8716;52.268;20.968;2023-07-24T03:57:50;22.00;99.90
17200;DHT22;8716;52.268;20.968;2023-07-24T04:00:19;22.00;99.90
17200;DHT22;8716;52.268;20.968;2023-07-24T04:02:47;22.00;99.90
17200;DHT22;8716;52.268;20.968;2023-07-24T04:05:16;22.00;99.90
17200;DHT22;8716;52.268;20.968;2023-07-24T04:07:44;22.00;99.90
17200;DHT22;8716;52.268;20.968;2023-07-24T04:10:12;22.00;99.90
17200;DHT22;8716;52.268;20.968;2023-07-24T04:12:41;22.10;99.90
17200;DHT22;8716;52.268;20.968;2023-07-24T04:15:10;22.10;99.90
17200;DHT22;8716;52.268;20.968;2023-07-24T04:17:38;22.10;99.90
17200;DHT22;8716;52.268;20.968;2023-07-24T04:20:09;22.10;99.90
17200;DHT22;8716;52.268;20.968;2023-07-24T04:22:37;22.10;99.90
17200;DHT22;8716;52.268;20.968;2023-07-24T04:25:07;22.20;99.90
17200;DHT22;8716;52.268;20.968;2023-07-24T04:27:38;22.20;99.90
17200;DHT22;8716;52.268;20.968;2023-07-24T04:32:44;22.30;99.90
17200;DHT22;8716;52.268;20.968;2023-07-24T04:35:13;22.30;99.90
17200;DHT22;8716;52.268;20.968;2023-07-24T04:37:41;22.40;99.90
17200;DHT22;8716;52.268;20.968;2023-07-24T04:40:11;22.50;99.90
17200;DHT22;8716;52.268;20.968;2023-07-24T04:42:42;22.50;99.90
17200;DHT22;8716;52.268;20.968;2023-07-24T04:45:10;22.60;99.90
17200;DHT22;8716;52.268;20.968;2023-07-24T04:47:38;22.60;99.90
17200;DHT22;8716;52.268;20.968;2023-07-24T04:50:09;22.60;99.90
17200;DHT22;8716;52.268;20.968;2023-07-24T04:52:37;22.70;99.90
17200;DHT22;8716;52.268;20.968;2023-07-24T04:55:06;22.70;99.90
17200;DHT22;8716;52.268;20.968;2023-07-24T04:57:34;22.80;99.90
17200;DHT22;8716;52.268;20.968;2023-07-24T05:00:03;22.80;99.90
17200;DHT22;8716;52.268;20.968;2023-07-24T05:02:32;22.90;99.90
17200;DHT22;8716;52.268;20.968;2023-07-24T05:05:00;23.00;99.90
17200;DHT22;8716;52.268;20.968;2023-07-24T05:07:30;23.20;99.90
17200;DHT22;8716;52.268;20.968;2023-07-24T05:09:59;23.40;99.90
17200;DHT22;8716;52.268;20.968;2023-07-24T05:12:27;23.60;99.90
17200;DHT22;8716;52.268;20.968;2023-07-24T05:14:55;23.80;99.90
17200;DHT22;8716;52.268;20.968;2023-07-24T05:17:24;23.90;99.90
17200;DHT22;8716;52.268;20.968;2023-07-24T05:19:52;24.00;99.90
17200;DHT22;8716;52.268;20.968;2023-07-24T05:22:20;24.00;99.90
17200;DHT22;8716;52.268;20.968;2023-07-24T05:24:50;24.00;99.90
17200;DHT22;8716;52.268;20.968;2023-07-24T05:27:18;24.00;99.90
17200;DHT22;8716;52.268;20.968;2023-07-24T05:29:46;24.00;99.90
17200;DHT22;8716;52.268;20.968;2023-07-24T05:32:15;23.90;99.90
17200;DHT22;8716;52.268;20.968;2023-07-24T05:34:43;23.90;99.90
17200;DHT22;8716;52.268;20.968;2023-07-24T05:37:12;23.90;99.90
17200;DHT22;8716;52.268;20.968;2023-07-24T05:39:40;23.90;99.90
17200;DHT22;8716;52.268;20.968;2023-07-24T05:42:10;23.90;99.90
17200;DHT22;8716;52.268;20.968;2023-07-24T05:44:38;23.80;99.90
17200;DHT22;8716;52.268;20.968;2023-07-24T05:47:06;23.90;99.90
17200;DHT22;8716;52.268;20.968;2023-07-24T05:49:37;23.90;99.90
17200;DHT22;8716;52.268;20.968;2023-07-24T05:52:08;23.80;99.90
17200;DHT22;8716;52.268;20.968;2023-07-24T05:54:36;23.80;99.90
17200;DHT22;8716;52.268;20.968;2023-07-24T05:57:09;23.80;99.90
17200;DHT22;8716;52.268;20.968;2023-07-24T05:59:38;23.80;99.90
17200;DHT22;8716;52.268;20.968;2023-07-24T06:02:06;23.80;99.90
17200;DHT22;8716;52.268;20.968;2023-07-24T06:04:36;23.90;99.90
17200;DHT22;8716;52.268;20.968;2023-07-24T06:07:05;23.90;99.90
17200;DHT22;8716;52.268;20.968;2023-07-24T06:09:33;23.90;99.90
17200;DHT22;8716;52.268;20.968;2023-07-24T06:12:05;24.00;99.90
17200;DHT22;8716;52.268;20.968;2023-07-24T06:14:34;24.00;99.90
17200;DHT22;8716;52.268;20.968;2023-07-24T06:17:03;24.00;99.90
17200;DHT22;8716;52.268;20.968;2023-07-24T06:19:32;24.00;99.90
17200;DHT22;8716;52.268;20.968;2023-07-24T06:22:00;23.90;99.90
17200;DHT22;8716;52.268;20.968;2023-07-24T06:24:29;23.90;99.90
17200;DHT22;8716;52.268;20.968;2023-07-24T06:26:57;23.90;99.90
17200;DHT22;8716;52.268;20.968;2023-07-24T06:29:25;23.90;99.90
17200;DHT22;8716;52.268;20.968;2023-07-24T06:31:55;24.00;99.90
17200;DHT22;8716;52.268;20.968;2023-07-24T06:34:23;24.00;99.90
17200;DHT22;8716;52.268;20.968;2023-07-24T06:36:51;24.20;99.90
17200;DHT22;8716;52.268;20.968;2023-07-24T06:39:22;24.30;99.90
17200;DHT22;8716;52.268;20.968;2023-07-24T06:41:51;24.50;99.90
17200;DHT22;8716;52.268;20.968;2023-07-24T06:44:20;24.50;99.90
17200;DHT22;8716;52.268;20.968;2023-07-24T06:46:48;24.50;99.90
17200;DHT22;8716;52.268;20.968;2023-07-24T06:49:22;24.50;99.90
17200;DHT22;8716;52.268;20.968;2023-07-24T06:51:50;24.50;99.90
17200;DHT22;8716;52.268;20.968;2023-07-24T06:54:18;24.50;99.90
17200;DHT22;8716;52.268;20.968;2023-07-24T06:56:46;24.50;99.90
17200;DHT22;8716;52.268;20.968;2023-07-24T06:59:15;24.40;99.90
17200;DHT22;8716;52.268;20.968;2023-07-24T07:01:43;24.50;99.90
17200;DHT22;8716;52.268;20.968;2023-07-24T07:04:11;24.50;99.90
17200;DHT22;8716;52.268;20.968;2023-07-24T07:06:41;24.60;99.90
17200;DHT22;8716;52.268;20.968;2023-07-24T07:09:09;24.70;99.90
17200;DHT22;8716;52.268;20.968;2023-07-24T07:11:38;25.00;99.90
17200;DHT22;8716;52.268;20.968;2023-07-24T07:14:07;25.30;99.90
17200;DHT22;8716;52.268;20.968;2023-07-24T07:16:35;25.70;99.90
17200;DHT22;8716;52.268;20.968;2023-07-24T07:19:04;26.00;99.90
17200;DHT22;8716;52.268;20.968;2023-07-24T07:21:32;26.50;99.90
17200;DHT22;8716;52.268;20.968;2023-07-24T07:24:02;26.80;99.90
17200;DHT22;8716;52.268;20.968;2023-07-24T07:26:30;27.10;99.90
17200;DHT22;8716;52.268;20.968;2023-07-24T07:28:59;27.30;99.90
17200;DHT22;8716;52.268;20.968;2023-07-24T07:31:27;27.40;99.90
17200;DHT22;8716;52.268;20.968;2023-07-24T07:34:01;27.50;99.90
17200;DHT22;8716;52.268;20.968;2023-07-24T07:36:30;27.50;99.90
17200;DHT22;8716;52.268;20.968;2023-07-24T07:38:58;27.80;99.90
17200;DHT22;8716;52.268;20.968;2023-07-24T07:41:28;28.00;99.70
17200;DHT22;8716;52.268;20.968;2023-07-24T07:43:57;28.20;99.10
17200;DHT22;8716;52.268;20.968;2023-07-24T07:46:27;28.10;98.90
17200;DHT22;8716;52.268;20.968;2023-07-24T07:48:56;28.10;98.50
17200;DHT22;8716;52.268;20.968;2023-07-24T07:51:24;27.90;97.90
17200;DHT22;8716;52.268;20.968;2023-07-24T07:53:56;27.80;98.10
17200;DHT22;8716;52.268;20.968;2023-07-24T07:56:24;27.70;98.40
17200;DHT22;8716;52.268;20.968;2023-07-24T07:58:54;27.70;99.30
17200;DHT22;8716;52.268;20.968;2023-07-24T08:01:22;27.80;98.90
17200;DHT22;8716;52.268;20.968;2023-07-24T08:03:51;28.00;98.50
17200;DHT22;8716;52.268;20.968;2023-07-24T08:06:19;28.20;97.90
17200;DHT22;8716;52.268;20.968;2023-07-24T08:08:48;28.20;97.20
17200;DHT22;8716;52.268;20.968;2023-07-24T08:11:16;28.30;96.90
17200;DHT22;8716;52.268;20.968;2023-07-24T08:13:45;28.40;96.80
17200;DHT22;8716;52.268;20.968;2023-07-24T08:16:15;28.40;96.90
17200;DHT22;8716;52.268;20.968;2023-07-24T08:18:46;28.40;96.70
17200;DHT22;8716;52.268;20.968;2023-07-24T08:21:15;28.30;96.70
17200;DHT22;8716;52.268;20.968;2023-07-24T08:23:43;28.40;96.50
17200;DHT22;8716;52.268;20.968;2023-07-24T08:26:11;28.40;96.70
17200;DHT22;8716;52.268;20.968;2023-07-24T08:28:40;28.40;96.70
17200;DHT22;8716;52.268;20.968;2023-07-24T08:31:09;28.30;96.50
17200;DHT22;8716;52.268;20.968;2023-07-24T08:33:39;28.40;96.30
17200;DHT22;8716;52.268;20.968;2023-07-24T08:36:08;28.50;96.10
17200;DHT22;8716;52.268;20.968;2023-07-24T08:38:39;28.60;96.40
17200;DHT22;8716;52.268;20.968;2023-07-24T08:41:09;28.80;96.00
17200;DHT22;8716;52.268;20.968;2023-07-24T08:43:40;29.10;95.70
17200;DHT22;8716;52.268;20.968;2023-07-24T08:46:09;29.70;95.20
17200;DHT22;8716;52.268;20.968;2023-07-24T08:48:40;30.10;94.10
17200;DHT22;8716;52.268;20.968;2023-07-24T08:51:10;30.60;93.60
17200;DHT22;8716;52.268;20.968;2023-07-24T08:53:43;31.00;92.90
17200;DHT22;8716;52.268;20.968;2023-07-24T08:56:12;31.40;92.10
17200;DHT22;8716;52.268;20.968;2023-07-24T08:58:41;31.50;91.60
17200;DHT22;8716;52.268;20.968;2023-07-24T09:01:10;31.50;91.00
17200;DHT22;8716;52.268;20.968;2023-07-24T09:03:40;31.40;90.60
17200;DHT22;8716;52.268;20.968;2023-07-24T09:06:10;31.20;90.50
17200;DHT22;8716;52.268;20.968;2023-07-24T09:08:42;31.10;90.80
17200;DHT22;8716;52.268;20.968;2023-07-24T09:11:14;31.30;90.50
17200;DHT22;8716;52.268;20.968;2023-07-24T09:13:43;31.50;90.00
17200;DHT22;8716;52.268;20.968;2023-07-24T09:16:21;32.10;89.00
17200;DHT22;8716;52.268;20.968;2023-07-24T09:18:51;33.00;86.60
17200;DHT22;8716;52.268;20.968;2023-07-24T09:21:29;33.70;84.50
17200;DHT22;8716;52.268;20.968;2023-07-24T09:24:09;34.30;82.40
17200;DHT22;8716;52.268;20.968;2023-07-24T09:26:47;34.70;80.00
17200;DHT22;8716;52.268;20.968;2023-07-24T09:29:16;35.10;77.70
17200;DHT22;8716;52.268;20.968;2023-07-24T09:31:45;35.40;75.60
17200;DHT22;8716;52.268;20.968;2023-07-24T09:34:18;35.80;73.70
17200;DHT22;8716;52.268;20.968;2023-07-24T09:36:47;35.80;71.90
17200;DHT22;8716;52.268;20.968;2023-07-24T09:39:22;35.50;72.20
17200;DHT22;8716;52.268;20.968;2023-07-24T09:41:52;35.10;72.30
17200;DHT22;8716;52.268;20.968;2023-07-24T09:44:21;34.80;72.90
17200;DHT22;8716;52.268;20.968;2023-07-24T09:46:53;34.50;74.10
17200;DHT22;8716;52.268;20.968;2023-07-24T09:49:25;34.20;73.90
17200;DHT22;8716;52.268;20.968;2023-07-24T09:52:02;33.80;74.10
17200;DHT22;8716;52.268;20.968;2023-07-24T09:54:35;33.70;74.00
17200;DHT22;8716;52.268;20.968;2023-07-24T09:57:08;33.60;74.20
17200;DHT22;8716;52.268;20.968;2023-07-24T09:59:52;33.50;74.80
17200;DHT22;8716;52.268;20.968;2023-07-24T10:02:21;33.50;74.80
17200;DHT22;8716;52.268;20.968;2023-07-24T10:04:53;33.60;75.40
17200;DHT22;8716;52.268;20.968;2023-07-24T10:07:22;33.90;74.10
17200;DHT22;8716;52.268;20.968;2023-07-24T10:09:51;34.00;73.90
17200;DHT22;8716;52.268;20.968;2023-07-24T10:12:22;34.00;73.60
17200;DHT22;8716;52.268;20.968;2023-07-24T10:14:51;34.00;73.40
17200;DHT22;8716;52.268;20.968;2023-07-24T10:17:34;33.90;73.30
17200;DHT22;8716;52.268;20.968;2023-07-24T10:20:07;33.60;72.00
17200;DHT22;8716;52.268;20.968;2023-07-24T10:22:36;33.30;73.40
17200;DHT22;8716;52.268;20.968;2023-07-24T10:25:10;33.10;74.60
17200;DHT22;8716;52.268;20.968;2023-07-24T10:27:41;32.60;72.90
17200;DHT22;8716;52.268;20.968;2023-07-24T10:30:28;32.30;73.90
17200;DHT22;8716;52.268;20.968;2023-07-24T10:33:08;32.00;74.50
17200;DHT22;8716;52.268;20.968;2023-07-24T10:35:42;31.80;75.30
17200;DHT22;8716;52.268;20.968;2023-07-24T10:38:12;31.70;76.90
17200;DHT22;8716;52.268;20.968;2023-07-24T10:40:41;31.70;76.40
17200;DHT22;8716;52.268;20.968;2023-07-24T10:43:10;31.70;76.20
17200;DHT22;8716;52.268;20.968;2023-07-24T10:45:46;31.70;77.00
17200;DHT22;8716;52.268;20.968;2023-07-24T10:48:16;31.70;76.60
17200;DHT22;8716;52.268;20.968;2023-07-24T10:50:48;31.70;76.50
17200;DHT22;8716;52.268;20.968;2023-07-24T10:53:22;31.70;76.00
17200;DHT22;8716;52.268;20.968;2023-07-24T10:55:51;31.60;76.30
17200;DHT22;8716;52.268;20.968;2023-07-24T10:58:19;31.40;76.30
17200;DHT22;8716;52.268;20.968;2023-07-24T11:00:48;31.30;77.00
17200;DHT22;8716;52.268;20.968;2023-07-24T11:03:17;31.10;76.90
17200;DHT22;8716;52.268;20.968;2023-07-24T11:05:47;31.00;77.10
17200;DHT22;8716;52.268;20.968;2023-07-24T11:08:17;31.10;78.10
17200;DHT22;8716;52.268;20.968;2023-07-24T11:10:46;31.50;77.80
17200;DHT22;8716;52.268;20.968;2023-07-24T11:13:19;32.10;76.70
17200;DHT22;8716;52.268;20.968;2023-07-24T11:15:49;32.60;74.80
17200;DHT22;8716;52.268;20.968;2023-07-24T11:18:19;33.30;74.40
17200;DHT22;8716;52.268;20.968;2023-07-24T11:20:51;33.80;70.10
17200;DHT22;8716;52.268;20.968;2023-07-24T11:23:20;34.00;69.70
17200;DHT22;8716;52.268;20.968;2023-07-24T11:25:50;34.20;69.20
17200;DHT22;8716;52.268;20.968;2023-07-24T11:28:19;34.60;69.80
17200;DHT22;8716;52.268;20.968;2023-07-24T11:30:48;35.00;68.20
17200;DHT22;8716;52.268;20.968;2023-07-24T11:33:17;35.30;67.20
17200;DHT22;8716;52.268;20.968;2023-07-24T11:35:46;35.50;67.70
17200;DHT22;8716;52.268;20.968;2023-07-24T11:38:16;35.70;66.70
17200;DHT22;8716;52.268;20.968;2023-07-24T11:40:45;35.90;65.30
17200;DHT22;8716;52.268;20.968;2023-07-24T11:43:17;36.20;65.00
17200;DHT22;8716;52.268;20.968;2023-07-24T11:45:46;36.30;64.10
17200;DHT22;8716;52.268;20.968;2023-07-24T11:48:16;36.40;63.40
17200;DHT22;8716;52.268;20.968;2023-07-24T11:50:45;36.40;63.10
17200;DHT22;8716;52.268;20.968;2023-07-24T11:53:21;36.40;62.70
17200;DHT22;8716;52.268;20.968;2023-07-24T11:55:53;36.30;62.20
17200;DHT22;8716;52.268;20.968;2023-07-24T11:58:22;36.00;62.40
17200;DHT22;8716;52.268;20.968;2023-07-24T12:00:53;35.80;63.70
17200;DHT22;8716;52.268;20.968;2023-07-24T12:03:24;35.80;63.80
17200;DHT22;8716;52.268;20.968;2023-07-24T12:05:53;35.70;62.80
17200;DHT22;8716;52.268;20.968;2023-07-24T12:08:30;35.40;63.30
17200;DHT22;8716;52.268;20.968;2023-07-24T12:11:01;35.20;63.60
17200;DHT22;8716;52.268;20.968;2023-07-24T12:13:29;34.90;63.50
17200;DHT22;8716;52.268;20.968;2023-07-24T12:15:59;34.70;64.10
17200;DHT22;8716;52.268;20.968;2023-07-24T12:18:27;34.50;64.50
17200;DHT22;8716;52.268;20.968;2023-07-24T12:20:55;34.30;64.50
17200;DHT22;8716;52.268;20.968;2023-07-24T12:23:25;34.10;64.20
17200;DHT22;8716;52.268;20.968;2023-07-24T12:25:53;33.90;65.10
17200;DHT22;8716;52.268;20.968;2023-07-24T12:28:22;33.80;65.50
17200;DHT22;8716;52.268;20.968;2023-07-24T12:30:50;33.80;65.70
17200;DHT22;8716;52.268;20.968;2023-07-24T12:33:19;33.70;65.80
17200;DHT22;8716;52.268;20.968;2023-07-24T12:35:50;33.60;66.10
17200;DHT22;8716;52.268;20.968;2023-07-24T12:38:19;33.40;66.30
17200;DHT22;8716;52.268;20.968;2023-07-24T12:40:49;33.20;66.10
17200;DHT22;8716;52.268;20.968;2023-07-24T12:43:18;33.20;66.90
17200;DHT22;8716;52.268;20.968;2023-07-24T12:45:46;33.20;67.10
17200;DHT22;8716;52.268;20.968;2023-07-24T12:48:14;33.40;67.60
17200;DHT22;8716;52.268;20.968;2023-07-24T12:50:44;33.50;66.50
17200;DHT22;8716;52.268;20.968;2023-07-24T12:53:12;33.40;66.50
17200;DHT22;8716;52.268;20.968;2023-07-24T12:55:46;33.30;66.30
17200;DHT22;8716;52.268;20.968;2023-07-24T12:58:16;33.30;66.90
17200;DHT22;8716;52.268;20.968;2023-07-24T13:00:44;33.30;66.90
17200;DHT22;8716;52.268;20.968;2023-07-24T13:03:12;33.50;66.70
17200;DHT22;8716;52.268;20.968;2023-07-24T13:05:41;33.50;66.10
17200;DHT22;8716;52.268;20.968;2023-07-24T13:08:09;33.50;65.80
17200;DHT22;8716;52.268;20.968;2023-07-24T13:10:37;33.30;65.80
17200;DHT22;8716;52.268;20.968;2023-07-24T13:13:06;33.00;65.60
17200;DHT22;8716;52.268;20.968;2023-07-24T13:15:39;33.00;66.60
17200;DHT22;8716;52.268;20.968;2023-07-24T13:18:09;33.10;67.10
17200;DHT22;8716;52.268;20.968;2023-07-24T13:20:54;33.20;67.40
17200;DHT22;8716;52.268;20.968;2023-07-24T13:23:23;33.10;66.50
17200;DHT22;8716;52.268;20.968;2023-07-24T13:25:52;33.00;66.70
17200;DHT22;8716;52.268;20.968;2023-07-24T13:28:20;32.90;67.20
17200;DHT22;8716;52.268;20.968;2023-07-24T13:30:50;32.90;67.40
17200;DHT22;8716;52.268;20.968;2023-07-24T13:33:19;32.90;67.60
17200;DHT22;8716;52.268;20.968;2023-07-24T13:35:49;33.00;67.50
17200;DHT22;8716;52.268;20.968;2023-07-24T13:38:17;33.00;67.10
17200;DHT22;8716;52.268;20.968;2023-07-24T13:40:48;33.00;66.90
17200;DHT22;8716;52.268;20.968;2023-07-24T13:43:16;33.00;66.80
17200;DHT22;8716;52.268;20.968;2023-07-24T13:45:45;33.20;67.20
17200;DHT22;8716;52.268;20.968;2023-07-24T13:48:18;33.20;67.50
17200;DHT22;8716;52.268;20.968;2023-07-24T13:50:46;33.30;66.80
17200;DHT22;8716;52.268;20.968;2023-07-24T13:53:17;33.30;66.20
17200;DHT22;8716;52.268;20.968;2023-07-24T13:55:46;33.50;65.80
17200;DHT22;8716;52.268;20.968;2023-07-24T13:58:14;33.40;66.00
17200;DHT22;8716;52.268;20.968;2023-07-24T14:00:43;33.50;65.60
17200;DHT22;8716;52.268;20.968;2023-07-24T14:03:26;33.50;65.70
17200;DHT22;8716;52.268;20.968;2023-07-24T14:05:56;33.50;65.20
17200;DHT22;8716;52.268;20.968;2023-07-24T14:08:25;33.60;64.70
17200;DHT22;8716;52.268;20.968;2023-07-24T14:10:53;33.50;63.70
17200;DHT22;8716;52.268;20.968;2023-07-24T14:13:22;33.40;63.40
17200;DHT22;8716;52.268;20.968;2023-07-24T14:15:50;33.30;63.50
17200;DHT22;8716;52.268;20.968;2023-07-24T14:18:18;33.30;63.70
17200;DHT22;8716;52.268;20.968;2023-07-24T14:20:48;33.30;63.70
17200;DHT22;8716;52.268;20.968;2023-07-24T14:23:17;33.30;63.90
17200;DHT22;8716;52.268;20.968;2023-07-24T14:25:48;33.20;63.80
17200;DHT22;8716;52.268;20.968;2023-07-24T14:28:16;33.10;64.00
17200;DHT22;8716;52.268;20.968;2023-07-24T14:30:44;33.10;63.70
17200;DHT22;8716;52.268;20.968;2023-07-24T14:33:13;33.00;63.50
17200;DHT22;8716;52.268;20.968;2023-07-24T14:35:41;32.90;63.70
17200;DHT22;8716;52.268;20.968;2023-07-24T14:38:10;32.80;64.90
17200;DHT22;8716;52.268;20.968;2023-07-24T14:40:39;32.90;63.90
17200;DHT22;8716;52.268;20.968;2023-07-24T14:43:07;32.90;64.00
17200;DHT22;8716;52.268;20.968;2023-07-24T14:45:36;32.90;64.10
17200;DHT22;8716;52.268;20.968;2023-07-24T14:48:05;32.90;64.20
17200;DHT22;8716;52.268;20.968;2023-07-24T14:50:36;32.90;64.40
17200;DHT22;8716;52.268;20.968;2023-07-24T14:53:04;32.90;64.50
17200;DHT22;8716;52.268;20.968;2023-07-24T14:55:34;32.90;64.70
17200;DHT22;8716;52.268;20.968;2023-07-24T14:58:02;32.90;64.40
17200;DHT22;8716;52.268;20.968;2023-07-24T15:00:32;32.80;64.00
17200;DHT22;8716;52.268;20.968;2023-07-24T15:03:00;32.70;64.10
17200;DHT22;8716;52.268;20.968;2023-07-24T15:05:28;32.50;64.60
17200;DHT22;8716;52.268;20.968;2023-07-24T15:07:57;32.50;65.30
17200;DHT22;8716;52.268;20.968;2023-07-24T15:10:25;32.40;65.50
17200;DHT22;8716;52.268;20.968;2023-07-24T15:12:55;32.40;66.00
17200;DHT22;8716;52.268;20.968;2023-07-24T15:15:23;32.40;66.20
17200;DHT22;8716;52.268;20.968;2023-07-24T15:17:52;32.40;66.10
17200;DHT22;8716;52.268;20.968;2023-07-24T15:20:20;32.40;66.50
17200;DHT22;8716;52.268;20.968;2023-07-24T15:22:48;32.40;66.70
17200;DHT22;8716;52.268;20.968;2023-07-24T15:25:17;32.50;66.90
17200;DHT22;8716;52.268;20.968;2023-07-24T15:27:47;32.50;67.00
17200;DHT22;8716;52.268;20.968;2023-07-24T15:30:17;32.50;67.00
17200;DHT22;8716;52.268;20.968;2023-07-24T15:32:46;32.50;66.80
17200;DHT22;8716;52.268;20.968;2023-07-24T15:35:14;32.60;67.40
17200;DHT22;8716;52.268;20.968;2023-07-24T15:37:42;32.60;67.20
17200;DHT22;8716;52.268;20.968;2023-07-24T15:40:12;32.60;66.50
17200;DHT22;8716;52.268;20.968;2023-07-24T15:42:40;32.50;66.50
17200;DHT22;8716;52.268;20.968;2023-07-24T15:45:09;32.50;66.60
17200;DHT22;8716;52.268;20.968;2023-07-24T15:47:39;32.50;66.90